sensor_id;sensor_type;location;lat;lon;timestamp;pressure;altitude;pressure_sealevel;temperature;humidity
35045;BME280;21231;48.394;34.964;2024-01-07T06:58:16;99560.50;;;0.72;100.00
35045;BME280;21231;48.394;34.964;2024-01-07T07:01:03;99560.78;;;0.85;100.00
35045;BME280;21231;48.394;34.964;2024-01-07T07:03:52;99559.09;;;0.86;100.00
35045;BME280;21231;48.394;34.964;2024-01-07T07:06:38;99557.84;;;0.81;100.00
35045;BME280;21231;48.394;34.964;2024-01-07T07:09:25;99567.06;;;0.80;100.00
35045;BME280;21231;48.394;34.964;2024-01-07T07:12:12;99570.09;;;0.76;100.00
35045;BME280;21231;48.394;34.964;2024-01-07T07:14:58;99590.72;;;1.00;100.00
35045;BME280;21231;48.394;34.964;2024-01-07T07:17:44;99598.81;;;0.85;100.00
35045;BME280;21231;48.394;34.964;2024-01-07T07:20:31;99605.25;;;0.71;100.00
35045;BME280;21231;48.394;34.964;2024-01-07T07:23:18;99604.41;;;0.81;100.00
35045;BME280;21231;48.394;34.964;2024-01-07T07:26:04;99606.38;;;0.75;100.00
35045;BME280;21231;48.394;34.964;2024-01-07T07:28:50;99621.47;;;0.73;100.00
35045;BME280;21231;48.394;34.964;2024-01-07T07:31:37;99630.78;;;0.83;100.00
35045;BME280;21231;48.394;34.964;2024-01-07T07:34:24;99644.28;;;0.63;100.00
35045;BME280;21231;48.394;34.964;2024-01-07T07:37:11;99661.13;;;0.62;100.00
35045;BME280;21231;48.394;34.964;2024-01-07T07:39:57;99653.16;;;0.68;100.00
35045;BME280;21231;48.394;34.964;2024-01-07T07:42:44;99652.91;;;0.35;100.00
35045;BME280;21231;48.394;34.964;2024-01-07T07:45:32;99648.00;;;0.47;100.00
35045;BME280;21231;48.394;34.964;2024-01-07T07:48:19;99650.19;;;0.53;100.00
35045;BME280;21231;48.394;34.964;2024-01-07T07:51:05;99646.25;;;0.27;100.00
35045;BME280;21231;48.394;34.964;2024-01-07T07:53:52;99642.72;;;0.25;100.00
35045;BME280;21231;48.394;34.964;2024-01-07T07:56:38;99646.75;;;0.23;100.00
35045;BME280;21231;48.394;34.964;2024-01-07T07:59:24;99651.41;;;0.38;100.00
35045;BME280;21231;48.394;34.964;2024-01-07T08:02:10;99662.25;;;0.56;100.00
35045;BME280;21231;48.394;34.964;2024-01-07T08:04:56;99663.03;;;0.35;100.00
35045;BME280;21231;48.394;34.964;2024-01-07T08:07:43;99652.97;;;0.46;100.00
35045;BME280;21231;48.394;34.964;2024-01-07T08:10:30;99657.44;;;0.29;100.00
35045;BME280;21231;48.394;34.964;2024-01-07T08:13:18;99677.28;;;0.25;100.00
35045;BME280;21231;48.394;34.964;2024-01-07T08:16:04;99674.59;;;0.42;100.00
35045;BME280;21231;48.394;34.964;2024-01-07T08:18:51;99685.56;;;0.32;100.00
35045;BME280;21231;48.394;34.964;2024-01-07T08:21:38;99685.41;;;0.50;100.00
35045;BME280;21231;48.394;34.964;2024-01-07T08:24:25;99696.78;;;0.64;100.00
35045;BME280;21231;48.394;34.964;2024-01-07T08:27:11;99695.16;;;0.45;100.00
35045;BME280;21231;48.394;34.964;2024-01-07T08:29:57;99696.00;;;0.35;100.00
35045;BME280;21231;48.394;34.964;2024-01-07T08:32:42;99694.50;;;0.18;100.00
35045;BME280;21231;48.394;34.964;2024-01-07T08:35:30;99695.13;;;0.16;100.00
35045;BME280;21231;48.394;34.964;2024-01-07T08:38:16;99697.78;;;0.17;100.00
35045;BME280;21231;48.394;34.964;2024-01-07T08:41:03;99679.44;;;0.01;100.00
35045;BME280;21231;48.394;34.964;2024-01-07T08:43:49;99693.06;;;0.12;100.00
35045;BME280;21231;48.394;34.964;2024-01-07T08:46:36;99680.13;;;0.28;100.00
35045;BME280;21231;48.394;34.964;2024-01-07T08:49:22;99691.38;;;0.51;100.00
35045;BME280;21231;48.394;34.964;2024-01-07T08:52:09;99702.16;;;0.29;100.00
35045;BME280;21231;48.394;34.964;2024-01-07T08:54:56;99711.06;;;0.15;100.00
35045;BME280;21231;48.394;34.964;2024-01-07T08:57:42;99710.84;;;0.03;100.00
35045;BME280;21231;48.394;34.964;2024-01-07T09:00:28;99700.59;;;0.20;100.00
35045;BME280;21231;48.394;34.964;2024-01-07T09:03:18;99699.00;;;0.12;100.00
35045;BME280;21231;48.394;34.964;2024-01-07T09:06:05;99691.13;;;0.09;100.00
35045;BME280;21231;48.394;34.964;2024-01-07T09:08:51;99671.38;;;-0.23;100.00
35045;BME280;21231;48.394;34.964;2024-01-07T09:11:37;99683.88;;;0.03;100.00
35045;BME280;21231;48.394;34.964;2024-01-07T09:14:23;99679.78;;;0.14;100.00
35045;BME280;21231;48.394;34.964;2024-01-07T09:17:11;99682.16;;;0.13;100.00
35045;BME280;21231;48.394;34.964;2024-01-07T09:19:58;99674.41;;;-0.08;100.00
35045;BME280;21231;48.394;34.964;2024-01-07T09:22:45;99699.09;;;0.03;100.00
35045;BME280;21231;48.394;34.964;2024-01-07T09:25:31;99694.69;;;-0.08;100.00
35045;BME280;21231;48.394;34.964;2024-01-07T09:28:17;99677.56;;;-0.11;100.00
35045;BME280;21231;48.394;34.964;2024-01-07T09:31:03;99652.44;;;0.01;100.00
35045;BME280;21231;48.394;34.964;2024-01-07T09:33:50;99654.63;;;-0.12;100.00
35045;BME280;21231;48.394;34.964;2024-01-07T09:36:36;99620.13;;;-0.01;100.00
35045;BME280;21231;48.394;34.964;2024-01-07T09:39:23;99621.69;;;-0.12;100.00
35045;BME280;21231;48.394;34.964;2024-01-07T09:42:14;99646.50;;;0.01;100.00
35045;BME280;21231;48.394;34.964;2024-01-07T09:45:02;99659.50;;;-0.05;100.00
35045;BME280;21231;48.394;34.964;2024-01-07T09:47:52;99680.88;;;-0.12;100.00
35045;BME280;21231;48.394;34.964;2024-01-07T09:50:39;99685.19;;;0.08;100.00
35045;BME280;21231;48.394;34.964;2024-01-07T09:53:31;99659.06;;;-0.10;100.00
35045;BME280;21231;48.394;34.964;2024-01-07T09:56:25;99666.00;;;-0.18;100.00
35045;BME280;21231;48.394;34.964;2024-01-07T09:59:11;99634.06;;;-0.35;100.00
35045;BME280;21231;48.394;34.964;2024-01-07T10:01:58;99642.38;;;-0.27;100.00
35045;BME280;21231;48.394;34.964;2024-01-07T10:04:44;99645.31;;;-0.22;100.00
35045;BME280;21231;48.394;34.964;2024-01-07T10:07:33;99636.00;;;-0.13;100.00
35045;BME280;21231;48.394;34.964;2024-01-07T10:10:20;99632.97;;;-0.09;100.00
35045;BME280;21231;48.394;34.964;2024-01-07T10:13:08;99619.72;;;-0.25;100.00
35045;BME280;21231;48.394;34.964;2024-01-07T10:15:54;99628.63;;;-0.01;100.00
35045;BME280;21231;48.394;34.964;2024-01-07T10:18:41;99609.16;;;-0.30;100.00
35045;BME280;21231;48.394;34.964;2024-01-07T10:21:28;99622.47;;;-0.13;100.00
35045;BME280;21231;48.394;34.964;2024-01-07T10:24:14;99609.84;;;-0.42;100.00
35045;BME280;21231;48.394;34.964;2024-01-07T10:27:01;99634.50;;;-0.11;100.00
35045;BME280;21231;48.394;34.964;2024-01-07T10:29:48;99614.09;;;-0.32;100.00
35045;BME280;21231;48.394;34.964;2024-01-07T10:32:37;99609.59;;;-0.25;100.00
35045;BME280;21231;48.394;34.964;2024-01-07T10:35:37;99583.66;;;-0.23;100.00
35045;BME280;21231;48.394;34.964;2024-01-07T10:38:41;99606.50;;;-0.32;100.00
35045;BME280;21231;48.394;34.964;2024-01-07T10:41:31;99574.66;;;-0.38;100.00
35045;BME280;21231;48.394;34.964;2024-01-07T10:44:17;99582.22;;;-0.30;100.00
35045;BME280;21231;48.394;34.964;2024-01-07T10:47:06;99595.34;;;-0.34;100.00
35045;BME280;21231;48.394;34.964;2024-01-07T10:49:56;99573.56;;;-0.32;100.00
35045;BME280;21231;48.394;34.964;2024-01-07T10:52:49;99574.72;;;-0.28;100.00
35045;BME280;21231;48.394;34.964;2024-01-07T10:55:38;99584.59;;;-0.31;100.00
35045;BME280;21231;48.394;34.964;2024-01-07T10:58:32;99587.34;;;-0.19;100.00
35045;BME280;21231;48.394;34.964;2024-01-07T11:01:22;99588.78;;;-0.32;100.00
35045;BME280;21231;48.394;34.964;2024-01-07T11:04:17;99630.38;;;-0.38;100.00
35045;BME280;21231;48.394;34.964;2024-01-07T11:10:12;99636.34;;;-0.19;100.00
35045;BME280;21231;48.394;34.964;2024-01-07T11:13:00;99626.84;;;-0.40;100.00
35045;BME280;21231;48.394;34.964;2024-01-07T11:18:38;99623.06;;;-0.35;100.00
35045;BME280;21231;48.394;34.964;2024-01-07T11:21:26;99619.97;;;-0.42;100.00
35045;BME280;21231;48.394;34.964;2024-01-07T11:24:38;99618.84;;;-0.54;100.00
35045;BME280;21231;48.394;34.964;2024-01-07T11:27:30;99607.16;;;-0.62;100.00
35045;BME280;21231;48.394;34.964;2024-01-07T11:30:19;99588.47;;;-0.54;100.00
35045;BME280;21231;48.394;34.964;2024-01-07T11:33:06;99592.03;;;-0.52;100.00
35045;BME280;21231;48.394;34.964;2024-01-07T11:38:47;99609.69;;;-0.43;100.00
35045;BME280;21231;48.394;34.964;2024-01-07T11:41:40;99607.72;;;-0.56;100.00
35045;BME280;21231;48.394;34.964;2024-01-07T11:44:26;99632.94;;;-0.66;100.00
35045;BME280;21231;48.394;34.964;2024-01-07T11:47:12;99647.88;;;-0.50;100.00
35045;BME280;21231;48.394;34.964;2024-01-07T11:49:59;99626.00;;;-0.78;100.00
35045;BME280;21231;48.394;34.964;2024-01-07T11:52:46;99622.34;;;-0.62;100.00
35045;BME280;21231;48.394;34.964;2024-01-07T11:55:32;99634.03;;;-0.73;100.00
35045;BME280;21231;48.394;34.964;2024-01-07T11:58:20;99638.31;;;-0.72;100.00
35045;BME280;21231;48.394;34.964;2024-01-07T12:01:06;99628.59;;;-0.67;100.00
35045;BME280;21231;48.394;34.964;2024-01-07T12:03:52;99639.91;;;-0.92;100.00
35045;BME280;21231;48.394;34.964;2024-01-07T12:06:40;99664.03;;;-0.96;100.00
35045;BME280;21231;48.394;34.964;2024-01-07T12:09:26;99668.31;;;-0.86;100.00
35045;BME280;21231;48.394;34.964;2024-01-07T12:12:12;99667.66;;;-0.74;100.00
35045;BME280;21231;48.394;34.964;2024-01-07T12:14:58;99665.03;;;-0.85;100.00
35045;BME280;21231;48.394;34.964;2024-01-07T12:17:55;99652.53;;;-0.83;100.00
35045;BME280;21231;48.394;34.964;2024-01-07T12:20:42;99637.88;;;-0.77;100.00
35045;BME280;21231;48.394;34.964;2024-01-07T12:23:40;99627.38;;;-0.82;100.00
35045;BME280;21231;48.394;34.964;2024-01-07T12:26:30;99612.91;;;-0.83;100.00
35045;BME280;21231;48.394;34.964;2024-01-07T12:29:16;99614.34;;;-0.76;100.00
35045;BME280;21231;48.394;34.964;2024-01-07T12:32:05;99604.22;;;-0.76;100.00
35045;BME280;21231;48.394;34.964;2024-01-07T12:34:51;99630.91;;;-0.79;100.00
35045;BME280;21231;48.394;34.964;2024-01-07T12:37:38;99615.66;;;-0.90;100.00
35045;BME280;21231;48.394;34.964;2024-01-07T12:40:24;99623.22;;;-0.90;100.00
35045;BME280;21231;48.394;34.964;2024-01-07T12:43:13;99613.56;;;-0.94;100.00
35045;BME280;21231;48.394;34.964;2024-01-07T12:45:59;99607.69;;;-1.12;100.00
35045;BME280;21231;48.394;34.964;2024-01-07T12:48:51;99610.06;;;-1.05;100.00
35045;BME280;21231;48.394;34.964;2024-01-07T12:51:38;99607.53;;;-1.05;100.00
35045;BME280;21231;48.394;34.964;2024-01-07T12:54:26;99625.41;;;-0.84;100.00
35045;BME280;21231;48.394;34.964;2024-01-07T12:57:12;99631.78;;;-1.07;100.00
35045;BME280;21231;48.394;34.964;2024-01-07T12:59:58;99626.84;;;-1.05;100.00
35045;BME280;21231;48.394;34.964;2024-01-07T13:02:44;99620.63;;;-1.09;100.00
35045;BME280;21231;48.394;34.964;2024-01-07T13:05:30;99627.16;;;-1.02;100.00
35045;BME280;21231;48.394;34.964;2024-01-07T13:08:18;99647.00;;;-1.16;100.00
35045;BME280;21231;48.394;34.964;2024-01-07T13:11:05;99632.53;;;-1.17;100.00
35045;BME280;21231;48.394;34.964;2024-01-07T13:13:53;99627.84;;;-1.23;100.00
35045;BME280;21231;48.394;34.964;2024-01-07T13:16:40;99635.34;;;-1.05;100.00
35045;BME280;21231;48.394;34.964;2024-01-07T13:19:26;99651.16;;;-1.16;100.00
35045;BME280;21231;48.394;34.964;2024-01-07T13:22:12;99662.28;;;-1.05;100.00
35045;BME280;21231;48.394;34.964;2024-01-07T13:24:59;99665.47;;;-1.26;100.00
35045;BME280;21231;48.394;34.964;2024-01-07T13:27:45;99665.41;;;-1.17;100.00
35045;BME280;21231;48.394;34.964;2024-01-07T13:30:31;99675.72;;;-1.24;100.00
35045;BME280;21231;48.394;34.964;2024-01-07T13:33:18;99666.94;;;-1.28;100.00
35045;BME280;21231;48.394;34.964;2024-01-07T13:36:05;99658.94;;;-1.32;100.00
35045;BME280;21231;48.394;34.964;2024-01-07T13:38:55;99638.88;;;-1.40;100.00
35045;BME280;21231;48.394;34.964;2024-01-07T13:41:43;99638.25;;;-1.37;100.00
35045;BME280;21231;48.394;34.964;2024-01-07T13:44:30;99644.38;;;-1.44;100.00
35045;BME280;21231;48.394;34.964;2024-01-07T13:47:17;99644.97;;;-1.38;100.00
35045;BME280;21231;48.394;34.964;2024-01-07T13:50:03;99632.78;;;-1.51;100.00
35045;BME280;21231;48.394;34.964;2024-01-07T13:52:50;99652.09;;;-1.42;100.00
35045;BME280;21231;48.394;34.964;2024-01-07T13:55:37;99651.81;;;-1.37;100.00
35045;BME280;21231;48.394;34.964;2024-01-07T13:58:26;99669.34;;;-1.47;100.00
35045;BME280;21231;48.394;34.964;2024-01-07T14:01:13;99640.78;;;-1.37;100.00
35045;BME280;21231;48.394;34.964;2024-01-07T14:04:00;99681.09;;;-1.39;100.00
35045;BME280;21231;48.394;34.964;2024-01-07T14:06:48;99679.47;;;-1.47;100.00
35045;BME280;21231;48.394;34.964;2024-01-07T14:09:39;99672.34;;;-1.42;100.00
35045;BME280;21231;48.394;34.964;2024-01-07T14:12:26;99663.56;;;-1.46;100.00
35045;BME280;21231;48.394;34.964;2024-01-07T14:15:12;99678.25;;;-1.33;100.00
35045;BME280;21231;48.394;34.964;2024-01-07T14:17:58;99678.84;;;-1.27;100.00
35045;BME280;21231;48.394;34.964;2024-01-07T14:20:45;99676.38;;;-1.53;100.00
35045;BME280;21231;48.394;34.964;2024-01-07T14:23:33;99682.44;;;-1.51;100.00
35045;BME280;21231;48.394;34.964;2024-01-07T14:26:19;99672.97;;;-1.63;100.00
35045;BME280;21231;48.394;34.964;2024-01-07T14:29:08;99659.75;;;-1.78;100.00
35045;BME280;21231;48.394;34.964;2024-01-07T14:32:04;99654.53;;;-1.70;100.00
35045;BME280;21231;48.394;34.964;2024-01-07T14:34:54;99653.47;;;-1.55;100.00
35045;BME280;21231;48.394;34.964;2024-01-07T14:37:40;99663.00;;;-1.61;100.00
35045;BME280;21231;48.394;34.964;2024-01-07T14:40:26;99659.28;;;-1.74;100.00
35045;BME280;21231;48.394;34.964;2024-01-07T14:43:13;99681.31;;;-1.81;100.00
35045;BME280;21231;48.394;34.964;2024-01-07T14:45:59;99668.53;;;-1.83;100.00
35045;BME280;21231;48.394;34.964;2024-01-07T14:48:45;99690.66;;;-1.63;100.00
35045;BME280;21231;48.394;34.964;2024-01-07T14:51:31;99698.50;;;-1.77;100.00
35045;BME280;21231;48.394;34.964;2024-01-07T14:54:18;99692.91;;;-1.75;100.00
35045;BME280;21231;48.394;34.964;2024-01-07T14:57:04;99693.91;;;-1.90;100.00
35045;BME280;21231;48.394;34.964;2024-01-07T14:59:50;99704.34;;;-1.87;100.00
35045;BME280;21231;48.394;34.964;2024-01-07T15:02:38;99696.72;;;-1.96;100.00
35045;BME280;21231;48.394;34.964;2024-01-07T15:05:23;99720.81;;;-1.82;100.00
35045;BME280;21231;48.394;34.964;2024-01-07T15:08:10;99728.38;;;-1.91;100.00
35045;BME280;21231;48.394;34.964;2024-01-07T15:11:01;99734.94;;;-1.93;100.00
35045;BME280;21231;48.394;34.964;2024-01-07T15:13:47;99734.78;;;-1.94;100.00
35045;BME280;21231;48.394;34.964;2024-01-07T15:16:35;99755.56;;;-1.88;100.00
35045;BME280;21231;48.394;34.964;2024-01-07T15:19:22;99781.44;;;-1.91;100.00
35045;BME280;21231;48.394;34.964;2024-01-07T15:22:09;99791.97;;;-2.04;100.00
35045;BME280;21231;48.394;34.964;2024-01-07T15:25:00;99790.47;;;-2.02;100.00
35045;BME280;21231;48.394;34.964;2024-01-07T15:27:46;99801.47;;;-1.92;100.00
35045;BME280;21231;48.394;34.964;2024-01-07T15:30:33;99803.69;;;-2.13;100.00
35045;BME280;21231;48.394;34.964;2024-01-07T15:33:19;99800.06;;;-2.24;100.00
35045;BME280;21231;48.394;34.964;2024-01-07T15:36:06;99805.28;;;-2.14;100.00
35045;BME280;21231;48.394;34.964;2024-01-07T15:38:54;99795.78;;;-2.16;100.00
35045;BME280;21231;48.394;34.964;2024-01-07T15:41:41;99788.25;;;-1.99;100.00
35045;BME280;21231;48.394;34.964;2024-01-07T15:44:27;99788.69;;;-2.03;100.00
35045;BME280;21231;48.394;34.964;2024-01-07T15:47:13;99784.50;;;-2.11;100.00
35045;BME280;21231;48.394;34.964;2024-01-07T15:49:59;99810.94;;;-2.16;100.00
35045;BME280;21231;48.394;34.964;2024-01-07T15:52:45;99811.63;;;-2.26;100.00
35045;BME280;21231;48.394;34.964;2024-01-07T15:55:34;99777.34;;;-2.15;100.00
35045;BME280;21231;48.394;34.964;2024-01-07T15:58:21;99757.69;;;-2.35;100.00
35045;BME280;21231;48.394;34.964;2024-01-07T16:01:10;99740.44;;;-2.48;100.00
35045;BME280;21231;48.394;34.964;2024-01-07T16:03:57;99712.66;;;-2.57;100.00
35045;BME280;21231;48.394;34.964;2024-01-07T16:06:44;99697.41;;;-2.50;100.00
35045;BME280;21231;48.394;34.964;2024-01-07T16:09:30;99687.59;;;-2.47;100.00
35045;BME280;21231;48.394;34.964;2024-01-07T16:12:23;99675.88;;;-2.46;100.00
35045;BME280;21231;48.394;34.964;2024-01-07T16:15:09;99670.50;;;-2.49;100.00
35045;BME280;21231;48.394;34.964;2024-01-07T16:17:56;99660.72;;;-2.46;100.00
35045;BME280;21231;48.394;34.964;2024-01-07T16:20:43;99628.47;;;-2.67;100.00
35045;BME280;21231;48.394;34.964;2024-01-07T16:23:29;99655.91;;;-2.70;100.00
35045;BME280;21231;48.394;34.964;2024-01-07T16:26:17;99655.19;;;-2.60;100.00
35045;BME280;21231;48.394;34.964;2024-01-07T16:29:03;99649.41;;;-2.59;100.00
35045;BME280;21231;48.394;34.964;2024-01-07T16:31:51;99621.66;;;-2.68;100.00
35045;BME280;21231;48.394;34.964;2024-01-07T16:34:38;99653.00;;;-2.48;100.00
35045;BME280;21231;48.394;34.964;2024-01-07T16:37:25;99661.19;;;-2.42;100.00
35045;BME280;21231;48.394;34.964;2024-01-07T16:40:11;99664.63;;;-2.84;100.00
35045;BME280;21231;48.394;34.964;2024-01-07T16:43:00;99658.88;;;-2.74;100.00
35045;BME280;21231;48.394;34.964;2024-01-07T16:45:46;99664.75;;;-2.91;100.00
35045;BME280;21231;48.394;34.964;2024-01-07T16:48:33;99653.59;;;-2.93;100.00
35045;BME280;21231;48.394;34.964;2024-01-07T16:51:22;99669.53;;;-2.77;100.00
35045;BME280;21231;48.394;34.964;2024-01-07T16:54:09;99650.38;;;-2.83;100.00
35045;BME280;21231;48.394;34.964;2024-01-07T16:56:55;99659.78;;;-2.73;100.00
35045;BME280;21231;48.394;34.964;2024-01-07T16:59:41;99647.13;;;-2.82;100.00
35045;BME280;21231;48.394;34.964;2024-01-07T17:02:28;99646.03;;;-2.93;100.00
35045;BME280;21231;48.394;34.964;2024-01-07T17:05:14;99652.31;;;-2.81;100.00
35045;BME280;21231;48.394;34.964;2024-01-07T17:08:02;99648.69;;;-3.00;100.00
35045;BME280;21231;48.394;34.964;2024-01-07T17:10:51;99652.69;;;-3.02;100.00
35045;BME280;21231;48.394;34.964;2024-01-07T17:13:37;99660.66;;;-3.07;100.00
35045;BME280;21231;48.394;34.964;2024-01-07T17:16:23;99672.69;;;-3.04;100.00
35045;BME280;21231;48.394;34.964;2024-01-07T17:19:14;99667.69;;;-2.95;100.00
35045;BME280;21231;48.394;34.964;2024-01-07T17:22:01;99669.22;;;-2.88;100.00
35045;BME280;21231;48.394;34.964;2024-01-07T17:24:47;99660.91;;;-2.87;100.00
35045;BME280;21231;48.394;34.964;2024-01-07T17:27:33;99654.16;;;-3.05;100.00
35045;BME280;21231;48.394;34.964;2024-01-07T17:30:19;99662.22;;;-2.91;100.00
35045;BME280;21231;48.394;34.964;2024-01-07T17:33:06;99655.19;;;-3.02;100.00
35045;BME280;21231;48.394;34.964;2024-01-07T17:35:55;99664.00;;;-2.90;100.00
35045;BME280;21231;48.394;34.964;2024-01-07T17:38:41;99653.28;;;-3.05;100.00
35045;BME280;21231;48.394;34.964;2024-01-07T17:41:28;99662.81;;;-2.94;100.00
35045;BME280;21231;48.394;34.964;2024-01-07T17:44:15;99649.84;;;-3.06;100.00
35045;BME280;21231;48.394;34.964;2024-01-07T17:47:01;99667.69;;;-2.95;100.00
35045;BME280;21231;48.394;34.964;2024-01-07T17:49:48;99668.13;;;-2.99;100.00
35045;BME280;21231;48.394;34.964;2024-01-07T17:52:34;99682.19;;;-3.01;100.00
35045;BME280;21231;48.394;34.964;2024-01-07T17:55:21;99708.06;;;-2.95;100.00
35045;BME280;21231;48.394;34.964;2024-01-07T17:58:08;99702.94;;;-3.29;100.00
35045;BME280;21231;48.394;34.964;2024-01-07T18:00:54;99699.25;;;-2.99;100.00
35045;BME280;21231;48.394;34.964;2024-01-07T18:03:41;99687.72;;;-3.22;100.00
35045;BME280;21231;48.394;34.964;2024-01-07T18:06:27;99690.75;;;-3.17;100.00
35045;BME280;21231;48.394;34.964;2024-01-07T18:09:13;99703.22;;;-3.10;100.00
35045;BME280;21231;48.394;34.964;2024-01-07T18:12:00;99708.31;;;-3.26;100.00
35045;BME280;21231;48.394;34.964;2024-01-07T18:14:47;99687.78;;;-3.13;100.00
35045;BME280;21231;48.394;34.964;2024-01-07T18:17:35;99656.03;;;-3.20;100.00
35045;BME280;21231;48.394;34.964;2024-01-07T18:20:22;99675.22;;;-3.29;100.00
35045;BME280;21231;48.394;34.964;2024-01-07T18:23:08;99680.66;;;-3.17;100.00
35045;BME280;21231;48.394;34.964;2024-01-07T18:25:56;99678.41;;;-3.14;100.00
35045;BME280;21231;48.394;34.964;2024-01-07T18:28:43;99676.63;;;-3.24;100.00
35045;BME280;21231;48.394;34.964;2024-01-07T18:31:31;99674.03;;;-3.33;100.00
35045;BME280;21231;48.394;34.964;2024-01-07T18:34:17;99674.88;;;-3.41;100.00
35045;BME280;21231;48.394;34.964;2024-01-07T18:37:03;99656.22;;;-3.34;100.00
35045;BME280;21231;48.394;34.964;2024-01-07T18:39:50;99668.91;;;-3.25;100.00
35045;BME280;21231;48.394;34.964;2024-01-07T18:42:36;99667.41;;;-3.48;100.00
35045;BME280;21231;48.394;34.964;2024-01-07T18:45:22;99675.53;;;-3.35;100.00
35045;BME280;21231;48.394;34.964;2024-01-07T18:48:09;99690.41;;;-3.45;100.00
35045;BME280;21231;48.394;34.964;2024-01-07T18:50:56;99690.81;;;-3.49;100.00
35045;BME280;21231;48.394;34.964;2024-01-07T18:53:42;99680.22;;;-3.38;100.00
35045;BME280;21231;48.394;34.964;2024-01-07T18:56:28;99667.41;;;-3.48;100.00
35045;BME280;21231;48.394;34.964;2024-01-07T18:59:14;99672.56;;;-3.31;100.00
35045;BME280;21231;48.394;34.964;2024-01-07T19:02:01;99660.06;;;-3.38;100.00
35045;BME280;21231;48.394;34.964;2024-01-07T19:04:47;99672.59;;;-3.22;100.00
35045;BME280;21231;48.394;34.964;2024-01-07T19:07:33;99670.16;;;-3.38;100.00
35045;BME280;21231;48.394;34.964;2024-01-07T19:10:22;99686.19;;;-3.53;100.00
35045;BME280;21231;48.394;34.964;2024-01-07T19:13:09;99675.09;;;-3.56;100.00
35045;BME280;21231;48.394;34.964;2024-01-07T19:15:56;99670.63;;;-3.58;100.00
35045;BME280;21231;48.394;34.964;2024-01-07T19:18:43;99662.00;;;-3.60;100.00
35045;BME280;21231;48.394;34.964;2024-01-07T19:21:29;99643.06;;;-3.57;100.00
35045;BME280;21231;48.394;34.964;2024-01-07T19:24:15;99654.25;;;-3.46;100.00
35045;BME280;21231;48.394;34.964;2024-01-07T19:27:02;99669.56;;;-3.60;100.00
35045;BME280;21231;48.394;34.964;2024-01-07T19:29:48;99674.97;;;-3.73;100.00
35045;BME280;21231;48.394;34.964;2024-01-07T19:32:34;99684.84;;;-3.59;100.00
35045;BME280;21231;48.394;34.964;2024-01-07T19:35:21;99676.66;;;-3.81;100.00
35045;BME280;21231;48.394;34.964;2024-01-07T19:38:08;99668.59;;;-3.70;100.00
35045;BME280;21231;48.394;34.964;2024-01-07T19:40:54;99657.16;;;-3.75;100.00
35045;BME280;21231;48.394;34.964;2024-01-07T19:43:40;99666.16;;;-3.61;100.00
